createdAt,value
2023-01-15T00:00:06.796Z,10.70
2023-01-15T00:02:34.756Z,10.80
2023-01-15T00:05:04.068Z,10.80
2023-01-15T00:07:32.681Z,10.80
2023-01-15T00:10:00.618Z,10.80
2023-01-15T00:12:28.484Z,10.80
2023-01-15T00:14:58.023Z,10.90
2023-01-15T00:17:26.263Z,10.90
2023-01-15T00:19:54.288Z,10.90
2023-01-15T00:22:23.565Z,10.80
2023-01-15T00:25:09.242Z,10.90
2023-01-15T00:27:40.097Z,10.90
2023-01-15T00:30:12.521Z,10.90
2023-01-15T00:32:40.773Z,10.90
2023-01-15T00:35:12.705Z,10.90
2023-01-15T00:37:41.974Z,11.00
2023-01-15T00:40:13.082Z,11.00
2023-01-15T00:42:41.248Z,11.00
2023-01-15T00:45:11.336Z,11.00
2023-01-15T00:47:40.645Z,11.00
2023-01-15T00:50:15.506Z,11.00
2023-01-15T00:52:44.834Z,11.00
2023-01-15T00:55:12.754Z,11.00
2023-01-15T00:57:40.689Z,11.00
2023-01-15T01:00:12.286Z,11.00
2023-01-15T01:02:40.318Z,11.00
2023-01-15T01:05:09.866Z,11.00
2023-01-15T01:07:37.799Z,11.00
2023-01-15T01:10:09.029Z,11.00
2023-01-15T01:12:38.396Z,11.00
2023-01-15T01:15:07.542Z,10.90
2023-01-15T01:17:35.548Z,11.00
2023-01-15T01:20:04.739Z,10.90
2023-01-15T01:22:33.667Z,11.00
2023-01-15T01:25:02.894Z,10.90
2023-01-15T01:27:32.090Z,10.90
2023-01-15T01:30:00.117Z,10.90
2023-01-15T01:32:28.311Z,10.90
2023-01-15T01:34:57.866Z,10.90
2023-01-15T01:37:25.845Z,11.00
2023-01-15T01:39:53.724Z,11.00
2023-01-15T01:42:21.684Z,11.00
2023-01-15T01:45:13.694Z,11.00
2023-01-15T01:47:42.019Z,11.00
2023-01-15T01:50:14.524Z,11.00
2023-01-15T01:52:48.060Z,11.00
2023-01-15T01:55:19.084Z,11.00
2023-01-15T01:57:51.387Z,11.00
2023-01-15T02:00:22.903Z,11.00
2023-01-15T02:02:52.223Z,11.00
2023-01-15T02:05:28.547Z,11.10
2023-01-15T02:07:56.884Z,11.20
2023-01-15T02:10:25.217Z,11.30
2023-01-15T02:13:01.405Z,11.30
2023-01-15T02:15:36.369Z,11.40
2023-01-15T02:18:11.908Z,11.40
2023-01-15T02:20:43.456Z,11.50
2023-01-15T02:23:36.451Z,11.50
2023-01-15T02:26:21.284Z,11.60
2023-01-15T02:28:52.794Z,11.70
2023-01-15T02:31:24.368Z,11.70
2023-01-15T02:33:59.385Z,11.70
2023-01-15T02:36:30.254Z,11.80
2023-01-15T02:39:05.796Z,11.70
2023-01-15T02:41:38.359Z,11.70
2023-01-15T02:44:11.620Z,11.70
2023-01-15T02:46:42.253Z,11.70
2023-01-15T02:49:16.145Z,11.70
2023-01-15T02:51:50.880Z,11.70
2023-01-15T02:54:24.728Z,11.70
2023-01-15T02:56:54.644Z,11.70
2023-01-15T02:59:28.375Z,11.70
2023-01-15T03:02:00.354Z,11.70
2023-01-15T03:04:33.603Z,11.60
2023-01-15T03:07:08.111Z,11.60
2023-01-15T03:09:38.617Z,11.60
2023-01-15T03:12:09.524Z,11.60
2023-01-15T03:14:50.748Z,11.60
2023-01-15T03:17:22.167Z,11.50
2023-01-15T03:19:57.337Z,11.60
2023-01-15T03:22:30.336Z,11.50
2023-01-15T03:25:04.097Z,11.60
2023-01-15T03:27:35.927Z,11.70
2023-01-15T03:30:08.502Z,11.70
2023-01-15T03:32:37.295Z,11.80
2023-01-15T03:35:10.593Z,11.90
2023-01-15T03:37:44.289Z,11.90
2023-01-15T03:40:13.593Z,11.90
2023-01-15T03:43:11.372Z,12.00
2023-01-15T03:45:44.605Z,12.00
2023-01-15T03:48:22.817Z,12.10
2023-01-15T03:50:57.351Z,12.10
2023-01-15T03:53:31.940Z,12.20
2023-01-15T03:56:07.968Z,12.20
2023-01-15T03:58:46.729Z,12.20
2023-01-15T04:01:22.594Z,12.20
2023-01-15T04:03:52.905Z,12.20
2023-01-15T04:06:27.027Z,12.30
2023-01-15T04:08:56.309Z,12.30
2023-01-15T04:11:25.572Z,12.30
2023-01-15T04:13:57.018Z,12.30
2023-01-15T04:16:34.788Z,12.30
2023-01-15T04:19:02.793Z,12.40
2023-01-15T04:21:32.635Z,12.30
2023-01-15T04:24:00.577Z,12.40
2023-01-15T04:26:28.463Z,12.40
2023-01-15T04:28:56.543Z,12.40
2023-01-15T04:31:24.435Z,12.40
2023-01-15T04:33:53.672Z,12.40
2023-01-15T04:36:21.591Z,12.40
2023-01-15T04:38:49.471Z,12.40
2023-01-15T04:41:35.013Z,12.40
2023-01-15T04:44:08.994Z,12.40
2023-01-15T04:46:39.583Z,12.40
2023-01-15T04:49:11.849Z,12.40
2023-01-15T04:51:40.235Z,12.40
2023-01-15T04:54:09.345Z,12.40
2023-01-15T04:56:40.745Z,12.50
2023-01-15T04:59:08.743Z,12.40
2023-01-15T05:01:36.863Z,12.40
2023-01-15T05:04:05.405Z,12.50
2023-01-15T05:06:35.339Z,12.50
2023-01-15T05:09:04.828Z,12.40
2023-01-15T05:11:35.298Z,12.50
2023-01-15T05:14:03.180Z,12.40
2023-01-15T05:16:31.443Z,12.40
2023-01-15T05:19:02.159Z,12.30
2023-01-15T05:21:32.786Z,12.30
2023-01-15T05:24:04.973Z,11.80
2023-01-15T05:26:34.168Z,10.90
2023-01-15T05:29:02.796Z,10.30
2023-01-15T05:31:31.766Z,9.80
2023-01-15T05:33:59.684Z,9.40
2023-01-15T05:36:30.065Z,9.20
2023-01-15T05:38:59.759Z,9.00
2023-01-15T05:41:47.890Z,8.80
2023-01-15T05:44:17.296Z,8.70
2023-01-15T05:46:46.339Z,8.60
2023-01-15T05:49:16.128Z,8.50
2023-01-15T05:51:45.057Z,8.50
2023-01-15T05:54:14.663Z,8.50
2023-01-15T05:56:45.554Z,8.40
2023-01-15T05:59:14.664Z,8.40
2023-01-15T06:01:42.854Z,8.40
2023-01-15T06:04:14.174Z,8.40
2023-01-15T06:06:43.323Z,8.30
2023-01-15T06:09:11.602Z,8.20
2023-01-15T06:11:39.731Z,8.20
2023-01-15T06:14:09.554Z,8.20
2023-01-15T06:16:38.069Z,8.10
2023-01-15T06:19:08.426Z,8.10
2023-01-15T06:21:37.186Z,8.10
2023-01-15T06:24:06.086Z,8.10
2023-01-15T06:26:34.101Z,8.10
2023-01-15T06:29:01.988Z,8.00
2023-01-15T06:31:32.516Z,8.00
2023-01-15T06:34:00.492Z,7.90
2023-01-15T06:36:29.695Z,7.90
2023-01-15T06:38:57.687Z,7.80
2023-01-15T06:41:44.901Z,7.80
2023-01-15T06:44:32.504Z,7.70
2023-01-15T06:47:22.658Z,7.60
2023-01-15T06:49:52.649Z,7.50
2023-01-15T06:52:20.703Z,7.50
2023-01-15T06:54:48.810Z,7.50
2023-01-15T06:57:18.733Z,7.40
2023-01-15T06:59:46.832Z,7.30
2023-01-15T07:02:17.765Z,7.30
2023-01-15T07:04:45.825Z,7.20
2023-01-15T07:07:13.724Z,7.20
2023-01-15T07:09:41.641Z,7.10
2023-01-15T07:12:09.880Z,7.00
2023-01-15T07:14:38.206Z,6.90
2023-01-15T07:17:06.103Z,6.90
2023-01-15T07:19:35.358Z,6.80
2023-01-15T07:22:03.298Z,6.80
2023-01-15T07:24:31.405Z,6.80
2023-01-15T07:26:59.467Z,6.70
2023-01-15T07:29:27.374Z,6.70
2023-01-15T07:31:57.139Z,6.60
2023-01-15T07:34:25.531Z,6.60
2023-01-15T07:36:55.321Z,6.60
2023-01-15T07:39:23.367Z,6.50
2023-01-15T07:42:08.948Z,6.50
2023-01-15T07:44:54.545Z,6.50
2023-01-15T07:47:42.051Z,6.50
2023-01-15T07:56:30.817Z,6.50
2023-01-15T07:58:58.691Z,6.50
2023-01-15T08:01:26.652Z,6.40
2023-01-15T08:03:54.712Z,6.40
2023-01-15T08:06:22.650Z,6.30
2023-01-15T08:08:50.592Z,6.30
2023-01-15T08:11:36.265Z,6.40
2023-01-15T08:14:23.263Z,6.40
2023-01-15T08:16:51.142Z,6.40
2023-01-15T08:19:19.070Z,6.40
2023-01-15T08:21:48.102Z,6.40
2023-01-15T08:24:16.092Z,6.40
2023-01-15T08:26:44.026Z,6.50
2023-01-15T08:29:13.245Z,6.50
2023-01-15T08:31:41.449Z,6.50
2023-01-15T08:34:09.681Z,6.50
2023-01-15T08:36:37.783Z,6.50
2023-01-15T08:39:06.403Z,6.60
2023-01-15T08:41:34.469Z,6.50
2023-01-15T08:44:02.421Z,6.50
2023-01-15T08:46:31.740Z,6.40
2023-01-15T08:48:59.632Z,6.40
2023-01-15T08:51:27.518Z,6.50
2023-01-15T08:53:55.406Z,6.50
2023-01-15T08:56:23.320Z,6.50
2023-01-15T08:58:51.704Z,6.40
2023-01-15T09:01:19.799Z,6.40
2023-01-15T09:03:49.120Z,6.30
2023-01-15T09:06:17.005Z,6.30
2023-01-15T09:08:44.956Z,6.20
2023-01-15T09:11:14.031Z,6.30
2023-01-15T09:13:44.382Z,6.30
2023-01-15T09:16:12.635Z,6.30
2023-01-15T09:18:41.430Z,6.40
2023-01-15T09:21:10.818Z,6.40
2023-01-15T09:23:39.362Z,6.40
2023-01-15T09:26:08.912Z,6.40
2023-01-15T09:28:37.579Z,6.40
2023-01-15T09:31:06.261Z,6.60
2023-01-15T09:33:34.672Z,6.60
2023-01-15T09:36:02.992Z,6.50
2023-01-15T09:38:34.662Z,6.50
2023-01-15T09:41:32.305Z,6.50
2023-01-15T09:44:20.408Z,6.60
2023-01-15T09:46:59.375Z,6.70
2023-01-15T09:49:38.553Z,6.80
2023-01-15T09:52:14.808Z,6.80
2023-01-15T09:54:54.908Z,6.80
2023-01-15T09:57:26.021Z,6.90
2023-01-15T10:00:00.912Z,6.80
2023-01-15T10:02:35.206Z,6.90
2023-01-15T10:05:11.272Z,7.00
2023-01-15T10:07:44.778Z,6.80
2023-01-15T10:10:18.218Z,6.70
2023-01-15T10:12:48.320Z,6.60
2023-01-15T10:15:23.376Z,6.50
2023-01-15T10:17:53.495Z,6.40
2023-01-15T10:20:39.363Z,6.30
2023-01-15T10:23:23.180Z,6.10
2023-01-15T10:26:00.618Z,6.10
2023-01-15T10:28:31.693Z,6.10
2023-01-15T10:31:08.138Z,6.00
2023-01-15T10:34:00.477Z,6.00
2023-01-15T10:36:33.998Z,6.00
2023-01-15T10:39:11.523Z,6.00
2023-01-15T10:42:00.787Z,5.90
2023-01-15T10:44:40.830Z,5.70
2023-01-15T10:47:15.285Z,5.60
2023-01-15T10:49:44.334Z,5.60
2023-01-15T10:52:24.998Z,5.60
2023-01-15T10:54:57.555Z,5.60
2023-01-15T10:57:37.634Z,5.60
2023-01-15T11:00:06.335Z,5.50
2023-01-15T11:02:39.204Z,5.30
2023-01-15T11:05:12.986Z,5.10
2023-01-15T11:08:06.530Z,5.00
2023-01-15T11:10:33.836Z,4.90
2023-01-15T11:13:35.248Z,4.90
2023-01-15T11:16:20.755Z,4.80
2023-01-15T11:19:06.977Z,4.70
2023-01-15T11:21:41.312Z,4.80
2023-01-15T11:24:16.298Z,4.80
2023-01-15T11:26:48.803Z,4.70
2023-01-15T11:29:27.148Z,4.70
2023-01-15T11:31:55.071Z,4.60
2023-01-15T11:34:24.155Z,4.60
2023-01-15T11:37:03.137Z,4.60
2023-01-15T11:39:31.182Z,4.40
2023-01-15T11:42:27.012Z,4.50
2023-01-15T11:45:12.322Z,4.40
2023-01-15T11:48:00.197Z,4.40
2023-01-15T11:50:46.305Z,4.50
2023-01-15T11:53:18.892Z,4.40
2023-01-15T11:56:01.103Z,4.30
2023-01-15T11:58:33.454Z,4.40
2023-01-15T12:01:03.186Z,4.40
2023-01-15T12:03:33.533Z,4.50
2023-01-15T12:06:05.481Z,4.50
2023-01-15T12:08:52.501Z,4.40
2023-01-15T12:11:45.985Z,4.50
2023-01-15T12:14:46.259Z,4.50
2023-01-15T12:17:26.826Z,4.50
2023-01-15T12:20:07.198Z,4.50
2023-01-15T12:22:55.802Z,4.50
2023-01-15T12:25:41.664Z,4.50
2023-01-15T12:28:15.545Z,4.50
2023-01-15T12:30:52.914Z,4.50
2023-01-15T12:33:33.323Z,4.60
2023-01-15T12:36:05.019Z,4.60
2023-01-15T12:38:46.855Z,4.60
2023-01-15T12:41:17.856Z,4.70
2023-01-15T12:44:08.504Z,4.70
2023-01-15T12:46:40.723Z,4.70
2023-01-15T12:49:20.615Z,4.70
2023-01-15T12:51:54.510Z,4.80
2023-01-15T12:54:29.928Z,4.80
2023-01-15T12:57:02.792Z,4.90
2023-01-15T12:59:36.651Z,4.90
2023-01-15T13:02:15.459Z,4.90
2023-01-15T13:04:49.438Z,5.00
2023-01-15T13:07:25.821Z,5.10
2023-01-15T13:10:01.432Z,5.10
2023-01-15T13:12:30.773Z,5.10
2023-01-15T13:14:58.690Z,5.10
2023-01-15T13:17:34.306Z,5.10
2023-01-15T13:20:17.444Z,5.10
2023-01-15T13:23:00.379Z,5.10
2023-01-15T13:25:43.255Z,5.20
2023-01-15T13:28:29.102Z,5.20
2023-01-15T13:31:08.978Z,5.20
2023-01-15T13:33:42.216Z,5.30
2023-01-15T13:36:16.807Z,5.30
2023-01-15T13:38:47.727Z,5.30
2023-01-15T13:41:41.540Z,5.40
2023-01-15T13:44:18.489Z,5.50
2023-01-15T13:46:48.701Z,5.50
2023-01-15T13:49:22.488Z,5.50
2023-01-15T13:51:52.023Z,5.60
2023-01-15T13:54:22.567Z,5.70
2023-01-15T13:56:50.812Z,5.80
2023-01-15T13:59:42.126Z,5.80
2023-01-15T14:02:26.068Z,5.90
2023-01-15T14:04:54.766Z,5.90
2023-01-15T14:07:35.009Z,6.00
2023-01-15T14:10:27.725Z,6.00
2023-01-15T14:13:10.264Z,6.00
2023-01-15T14:15:53.963Z,6.00
2023-01-15T14:18:35.134Z,6.00
2023-01-15T14:21:14.278Z,6.10
2023-01-15T14:23:58.256Z,6.10
2023-01-15T14:26:35.160Z,6.20
2023-01-15T14:29:14.792Z,6.20
2023-01-15T14:31:58.643Z,6.10
2023-01-15T14:34:30.418Z,6.20
2023-01-15T14:37:07.639Z,6.20
2023-01-15T14:39:42.716Z,6.20
2023-01-15T14:42:33.963Z,6.20
2023-01-15T14:45:05.802Z,6.10
2023-01-15T14:47:37.570Z,6.20
2023-01-15T14:50:31.197Z,6.20
2023-01-15T14:53:04.710Z,6.10
2023-01-15T14:55:35.163Z,6.20
2023-01-15T14:58:08.948Z,6.10
2023-01-15T15:00:40.653Z,6.00
2023-01-15T15:03:18.419Z,6.00
2023-01-15T15:05:48.027Z,6.00
2023-01-15T15:08:17.814Z,6.00
2023-01-15T15:10:53.984Z,6.00
2023-01-15T15:13:30.763Z,6.00
2023-01-15T15:16:07.386Z,5.90
2023-01-15T15:18:42.037Z,5.90
2023-01-15T15:21:18.717Z,5.90
2023-01-15T15:23:54.387Z,5.90
2023-01-15T15:26:26.961Z,5.80
2023-01-15T15:29:03.066Z,5.80
2023-01-15T15:31:36.890Z,5.80
2023-01-15T15:34:06.786Z,5.80
2023-01-15T15:36:39.332Z,5.70
2023-01-15T15:39:18.229Z,5.70
2023-01-15T15:42:07.623Z,5.70
2023-01-15T15:44:57.974Z,5.60
2023-01-15T15:47:44.459Z,5.50
2023-01-15T15:50:23.170Z,5.50
2023-01-15T15:52:52.247Z,5.50
2023-01-15T15:55:22.329Z,5.50
2023-01-15T15:57:55.538Z,5.40
2023-01-15T16:00:30.460Z,5.30
2023-01-15T16:03:01.022Z,5.30
2023-01-15T16:05:31.689Z,5.30
2023-01-15T16:08:10.060Z,5.20
2023-01-15T16:10:38.298Z,5.20
2023-01-15T16:13:12.991Z,5.20
2023-01-15T16:15:42.656Z,5.10
2023-01-15T16:18:19.728Z,5.20
2023-01-15T16:20:47.691Z,5.10
2023-01-15T16:23:22.685Z,5.10
2023-01-15T16:26:04.260Z,5.10
2023-01-15T16:28:39.055Z,5.10
2023-01-15T16:31:07.533Z,5.10
2023-01-15T16:33:37.355Z,5.10
2023-01-15T16:36:07.808Z,5.10
2023-01-15T16:38:38.225Z,5.10
2023-01-15T16:41:06.689Z,5.00
2023-01-15T16:43:52.804Z,5.00
2023-01-15T16:46:22.428Z,4.90
2023-01-15T16:48:50.457Z,4.90
2023-01-15T16:51:31.090Z,4.90
2023-01-15T16:53:59.154Z,4.90
2023-01-15T16:56:43.660Z,4.80
2023-01-15T16:59:17.394Z,4.90
2023-01-15T17:01:47.166Z,4.90
2023-01-15T17:04:28.660Z,4.80
2023-01-15T17:06:58.733Z,4.80
2023-01-15T17:09:27.076Z,4.80
2023-01-15T17:11:56.346Z,4.80
2023-01-15T17:14:29.676Z,4.80
2023-01-15T17:17:24.913Z,4.70
2023-01-15T17:19:55.890Z,4.70
2023-01-15T17:22:26.662Z,4.70
2023-01-15T17:24:56.609Z,4.70
2023-01-15T17:27:25.064Z,4.70
2023-01-15T17:29:54.798Z,4.60
2023-01-15T17:32:29.874Z,4.70
2023-01-15T17:34:57.818Z,4.60
2023-01-15T17:37:25.762Z,4.60
2023-01-15T17:39:54.162Z,4.60
2023-01-15T17:42:22.073Z,4.60
2023-01-15T17:44:49.984Z,4.60
2023-01-15T17:47:19.237Z,4.60
2023-01-15T17:49:47.261Z,4.60
2023-01-15T17:52:20.188Z,4.60
2023-01-15T17:55:05.814Z,4.50
2023-01-15T17:57:51.293Z,4.50
2023-01-15T18:00:37.503Z,4.50
2023-01-15T18:03:24.845Z,4.50
2023-01-15T18:05:52.985Z,4.50
2023-01-15T18:08:21.042Z,4.60
2023-01-15T18:10:48.993Z,4.60
2023-01-15T18:13:16.939Z,4.60
2023-01-15T18:15:45.185Z,4.60
2023-01-15T18:18:15.857Z,4.60
2023-01-15T18:20:46.631Z,4.50
2023-01-15T18:23:14.704Z,4.50
2023-01-15T18:25:46.094Z,4.50
2023-01-15T18:28:14.470Z,4.50
2023-01-15T18:30:43.130Z,4.50
2023-01-15T18:33:11.241Z,4.60
2023-01-15T18:35:40.666Z,4.50
2023-01-15T18:38:08.856Z,4.60
2023-01-15T18:40:36.862Z,4.60
2023-01-15T18:43:22.238Z,4.60
2023-01-15T18:46:07.745Z,4.60
2023-01-15T18:48:36.094Z,4.60
2023-01-15T18:51:10.167Z,4.60
2023-01-15T18:53:38.455Z,4.60
2023-01-15T18:56:07.147Z,4.60
2023-01-15T18:58:35.259Z,4.60
2023-01-15T19:01:08.984Z,4.60
2023-01-15T19:03:37.065Z,4.60
2023-01-15T19:06:11.312Z,4.60
2023-01-15T19:08:39.416Z,4.60
2023-01-15T19:11:12.690Z,4.60
2023-01-15T19:13:40.671Z,4.60
2023-01-15T19:16:26.537Z,4.50
2023-01-15T19:18:55.588Z,4.50
2023-01-15T19:21:25.042Z,4.50
2023-01-15T19:23:53.321Z,4.50
2023-01-15T19:26:21.316Z,4.60
2023-01-15T19:28:49.163Z,4.60
2023-01-15T19:31:36.827Z,4.60
2023-01-15T19:34:32.041Z,4.60
2023-01-15T19:36:58.690Z,4.60
2023-01-15T19:39:27.152Z,4.60
2023-01-15T19:42:24.380Z,4.60
2023-01-15T19:45:09.983Z,4.60
2023-01-15T19:47:57.213Z,4.60
2023-01-15T19:50:31.736Z,4.60
2023-01-15T19:53:01.770Z,4.60
2023-01-15T19:55:32.201Z,4.60
2023-01-15T19:58:02.130Z,4.60
2023-01-15T20:00:31.984Z,4.60
2023-01-15T20:03:00.166Z,4.50
2023-01-15T20:05:30.057Z,4.50
2023-01-15T20:08:00.343Z,4.50
2023-01-15T20:10:29.900Z,4.40
2023-01-15T20:13:15.227Z,4.40
2023-01-15T20:15:45.512Z,4.40
2023-01-15T20:18:14.049Z,4.40
2023-01-15T20:20:42.563Z,4.40
2023-01-15T20:23:11.885Z,4.40
2023-01-15T20:25:41.471Z,4.40
2023-01-15T20:28:09.467Z,4.30
2023-01-15T20:30:37.656Z,4.40
2023-01-15T20:33:05.641Z,4.30
2023-01-15T20:35:34.600Z,4.30
2023-01-15T20:38:02.861Z,4.30
2023-01-15T20:40:32.112Z,4.30
2023-01-15T20:43:17.828Z,4.20
2023-01-15T20:45:45.792Z,4.20
2023-01-15T20:48:31.387Z,4.20
2023-01-15T20:51:02.132Z,4.20
2023-01-15T20:53:34.091Z,4.20
2023-01-15T20:56:05.132Z,4.20
2023-01-15T20:58:33.186Z,4.10
2023-01-15T21:01:06.422Z,4.20
2023-01-15T21:03:34.514Z,4.10
2023-01-15T21:06:04.734Z,4.10
2023-01-15T21:08:33.511Z,4.10
2023-01-15T21:11:03.418Z,4.10
2023-01-15T21:13:31.374Z,4.10
2023-01-15T21:16:01.159Z,4.10
2023-01-15T21:18:30.846Z,4.10
2023-01-15T21:20:58.778Z,4.00
2023-01-15T21:23:26.691Z,4.00
2023-01-15T21:26:01.153Z,4.00
2023-01-15T21:28:30.838Z,4.00
2023-01-15T21:31:00.184Z,4.00
2023-01-15T21:33:28.104Z,4.00
2023-01-15T21:35:55.957Z,4.00
2023-01-15T21:38:23.895Z,3.90
2023-01-15T21:40:52.041Z,4.00
2023-01-15T21:43:37.284Z,3.90
2023-01-15T21:46:07.281Z,3.90
2023-01-15T21:48:35.496Z,3.90
2023-01-15T21:51:06.231Z,3.90
2023-01-15T21:53:34.280Z,3.80
2023-01-15T21:56:02.220Z,3.80
2023-01-15T21:58:30.213Z,3.80
2023-01-15T22:00:59.543Z,3.70
2023-01-15T22:03:28.934Z,3.70
2023-01-15T22:05:57.335Z,3.60
2023-01-15T22:08:25.241Z,3.60
2023-01-15T22:10:53.432Z,3.60
2023-01-15T22:13:21.320Z,3.50
2023-01-15T22:15:54.750Z,3.50
2023-01-15T22:18:25.681Z,3.50
2023-01-15T22:20:59.626Z,3.40
2023-01-15T22:23:28.041Z,3.40
2023-01-15T22:25:56.480Z,3.40
2023-01-15T22:28:24.407Z,3.40
2023-01-15T22:30:52.426Z,3.40
2023-01-15T22:33:20.731Z,3.40
2023-01-15T22:35:58.591Z,3.40
2023-01-15T22:38:27.275Z,3.40
2023-01-15T22:40:55.576Z,3.40
2023-01-15T22:43:23.610Z,3.30
2023-01-15T22:45:52.176Z,3.40
2023-01-15T22:48:20.072Z,3.40
2023-01-15T22:50:48.053Z,3.40
2023-01-15T22:53:17.255Z,3.40
2023-01-15T22:55:45.219Z,3.40
2023-01-15T22:58:13.094Z,3.40
2023-01-15T23:00:41.082Z,3.40
2023-01-15T23:03:09.241Z,3.40
2023-01-15T23:05:38.875Z,3.40
2023-01-15T23:08:07.462Z,3.30
2023-01-15T23:10:37.204Z,3.30
2023-01-15T23:13:05.197Z,3.30
2023-01-15T23:15:33.141Z,3.30
2023-01-15T23:18:01.002Z,3.30
2023-01-15T23:20:28.910Z,3.30
2023-01-15T23:22:56.807Z,3.40
2023-01-15T23:25:24.776Z,3.40
2023-01-15T23:27:54.137Z,3.30
2023-01-15T23:30:22.153Z,3.30
2023-01-15T23:32:49.993Z,3.40
2023-01-15T23:35:18.114Z,3.40
2023-01-15T23:37:46.025Z,3.40
2023-01-15T23:40:14.183Z,3.40
2023-01-15T23:42:59.610Z,3.40
2023-01-15T23:45:46.489Z,3.40
2023-01-15T23:48:14.351Z,3.40
2023-01-15T23:50:42.284Z,3.40
2023-01-15T23:53:10.213Z,3.40
2023-01-15T23:55:38.063Z,3.40
2023-01-15T23:58:05.915Z,3.40
